Terminal Aerodrome Forecast
Issued by NWS Miami, FL

Home | Current Version | Previous Version | Text Only | Print | Product List | Glossary On
Versions: 1 2 3 4 5 6 7 8 9 10 11 12 13 14 15 16 17 18 19 20 21 22 23 24 25 26 27 28 29 30 31 32 33 34 35 36 37 38 39 40 41 42 43 44 45 46 47 48 49 50
000
FTUS42 KMFL 301139
TAFPBI
TAF
KPBI 301139Z 3012/3112 12008KT P6SM VCSH SCT025 SCT035 BKN170
      TEMPO 3012/3014 VRB10G20KT 5SM SHRA SCT020 BKN030 BKN100
     FM301400 12010KT P6SM VCSH SCT025 BKN050 BKN150
     FM301600 12012KT P6SM VCTS SCT025CB BKN050 BKN120
     FM310000 11007KT P6SM VCSH SCT025 SCT050=

USA.gov is the U.S. government's official web portal to all federal, state and local government web resources and services.